Time;durP1;ratioP1;P1;durP2;ratioP2;P2;SDS_P1;SDS_P2;PMS_P1;PMS_P2;Temp;Humidity;BMP_temperature;BMP_pressure;BME280_temperature;BME280_humidity;BME280_pressure;Samples;Min_cycle;Max_cycle;Signal;HPM_P1;HPM_P2
2021/03/14 00:01:06;;;;;;;8.73;1.70;;;;;;;5.91;86.72;98629.50;5153443;28;20058;-80
2021/03/14 00:03:37;;;;;;;7.20;1.70;;;;;;;5.97;86.61;98637.81;5170554;28;20626;-80
2021/03/14 00:06:07;;;;;;;5.13;1.52;;;;;;;5.95;86.41;98633.59;5155058;28;20038;-80
2021/03/14 00:08:37;;;;;;;5.93;1.95;;;;;;;5.98;86.09;98641.22;5153043;28;20038;-80
2021/03/14 00:11:09;;;;;;;13.63;1.73;;;;;;;6.01;86.49;98635.91;5160916;28;20049;-80
2021/03/14 00:13:39;;;;;;;7.50;1.90;;;;;;;5.98;86.31;98642.09;5158437;28;20636;-81
2021/03/14 00:16:09;;;;;;;10.30;2.00;;;;;;;5.94;86.78;98637.13;5169528;28;20053;-83
2021/03/14 00:18:42;;;;;;;6.53;1.90;;;;;;;5.99;87.06;98653.28;5160221;28;20492;-81
2021/03/14 00:21:15;;;;;;;11.48;1.73;;;;;;;6.00;86.76;98657.53;5161440;28;20044;-78
2021/03/14 00:23:45;;;;;;;7.78;2.00;;;;;;;6.03;86.45;98645.28;5169755;28;20109;-86
2021/03/14 00:26:15;;;;;;;8.43;2.00;;;;;;;6.05;86.27;98655.59;5159887;28;20042;-80
2021/03/14 00:28:46;;;;;;;12.77;2.67;;;;;;;6.05;86.94;98659.00;5160400;28;20033;-81
2021/03/14 00:31:16;;;;;;;6.30;1.75;;;;;;;6.00;86.44;98653.22;5156879;28;20108;-80
2021/03/14 00:33:47;;;;;;;8.65;2.22;;;;;;;6.05;86.73;98660.78;5155080;28;20042;-80
2021/03/14 00:36:17;;;;;;;7.55;1.90;;;;;;;6.06;85.70;98667.66;5160207;28;20042;-80
2021/03/14 00:38:47;;;;;;;6.07;1.60;;;;;;;6.05;86.44;98659.00;5152746;28;21401;-78
2021/03/14 00:41:17;;;;;;;8.85;1.80;;;;;;;6.06;86.08;98681.44;5163342;28;20091;-80
2021/03/14 00:43:48;;;;;;;6.38;1.83;;;;;;;6.03;86.47;98660.00;5163034;28;20046;-80
2021/03/14 00:46:19;;;;;;;11.13;2.28;;;;;;;6.08;86.47;98678.78;5172711;28;20034;-79
2021/03/14 00:48:49;;;;;;;7.35;1.90;;;;;;;6.06;86.42;98670.25;5171941;28;20042;-81
2021/03/14 00:51:20;;;;;;;8.43;2.08;;;;;;;6.02;87.26;98672.13;5177671;28;20037;-80
2021/03/14 00:53:51;;;;;;;6.07;1.88;;;;;;;6.06;86.73;98675.41;5170705;28;20546;-83
2021/03/14 00:56:21;;;;;;;8.30;1.67;;;;;;;6.03;86.79;98685.91;5162086;28;20093;-83
2021/03/14 00:58:51;;;;;;;6.90;1.90;;;;;;;6.04;86.22;98682.41;5158214;28;20488;-81
2021/03/14 01:01:22;;;;;;;8.18;1.95;;;;;;;6.03;86.55;98689.34;5164853;28;20026;-81
2021/03/14 01:03:52;;;;;;;10.82;2.25;;;;;;;6.07;86.74;98677.09;5163094;28;20030;-80
2021/03/14 01:06:22;;;;;;;8.15;2.05;;;;;;;6.07;86.86;98698.66;5165570;28;20481;-81
2021/03/14 01:08:52;;;;;;;10.02;1.90;;;;;;;6.07;87.05;98716.00;5167627;28;20569;-79
2021/03/14 01:11:23;;;;;;;9.23;1.85;;;;;;;6.15;87.42;98706.94;5173154;28;20072;-80
2021/03/14 01:13:53;;;;;;;6.28;1.92;;;;;;;6.09;87.18;98714.97;5180075;28;20080;-80
2021/03/14 01:16:24;;;;;;;10.02;1.90;;;;;;;6.15;87.78;98722.50;5166194;28;20018;-83
2021/03/14 01:18:55;;;;;;;7.25;1.90;;;;;;;6.06;87.76;98719.50;5179902;28;20037;-81
2021/03/14 01:21:25;;;;;;;11.20;1.98;;;;;;;6.13;88.48;98737.28;5159644;28;20031;-78
2021/03/14 01:23:56;;;;;;;6.65;1.80;;;;;;;6.11;88.21;98740.84;5143749;28;20456;-78
2021/03/14 01:26:26;;;;;;;12.23;2.28;;;;;;;6.12;88.23;98732.16;5160687;28;20501;-82
2021/03/14 01:28:56;;;;;;;8.90;2.00;;;;;;;6.10;89.39;98740.00;5171175;28;20024;-81
2021/03/14 01:31:27;;;;;;;10.73;2.17;;;;;;;6.07;90.90;98760.88;5170898;28;20108;-79
2021/03/14 01:33:57;;;;;;;15.07;2.42;;;;;;;6.01;91.81;98760.31;5170149;28;20484;-80
2021/03/14 01:36:27;;;;;;;9.80;2.60;;;;;;;5.99;93.02;98772.53;5154007;28;20018;-80
2021/03/14 01:38:58;;;;;;;8.07;2.25;;;;;;;5.47;98.03;98778.34;5171217;28;20037;-79
2021/03/14 01:41:28;;;;;;;5.57;2.05;;;;;;;5.30;100.00;98780.00;5170012;28;20108;-80
2021/03/14 01:43:59;;;;;;;6.32;1.95;;;;;;;5.08;100.00;98805.94;5167617;28;20038;-79
2021/03/14 01:46:29;;;;;;;6.80;1.80;;;;;;;4.85;100.00;98792.28;5168149;28;20030;-79
2021/03/14 01:49:00;;;;;;;6.53;1.60;;;;;;;4.85;100.00;98798.31;5170347;28;20048;-81
2021/03/14 01:51:33;;;;;;;2.70;1.30;;;;;;;4.72;100.00;98797.13;5180323;28;20030;-79
2021/03/14 01:54:03;;;;;;;7.15;1.45;;;;;;;4.68;100.00;98802.47;5174312;28;20045;-80
2021/03/14 01:56:35;;;;;;;3.83;1.27;;;;;;;4.67;100.00;98808.53;5157110;28;20023;-80
2021/03/14 01:59:05;;;;;;;4.40;1.27;;;;;;;4.73;100.00;98828.97;5164585;28;20400;-81
2021/03/14 02:01:36;;;;;;;4.43;1.20;;;;;;;4.72;100.00;98817.81;5178232;28;20025;-81
2021/03/14 02:04:06;;;;;;;7.05;1.40;;;;;;;4.75;100.00;98811.66;5172039;28;20039;-79
2021/03/14 02:06:36;;;;;;;2.88;1.20;;;;;;;4.77;100.00;98810.69;5160779;28;20038;-79
2021/03/14 02:09:06;;;;;;;3.47;1.42;;;;;;;4.75;100.00;98815.09;5163773;28;20041;-79
2021/03/14 02:11:40;;;;;;;5.22;1.60;;;;;;;4.80;100.00;98826.09;5171304;28;20041;-79
2021/03/14 02:14:11;;;;;;;4.72;1.40;;;;;;;4.74;100.00;98838.44;5173966;28;20021;-79
2021/03/14 02:16:43;;;;;;;5.30;1.42;;;;;;;4.65;100.00;98847.38;5183958;28;20036;-80
2021/03/14 02:19:23;;;;;;;5.63;1.45;;;;;;;4.64;100.00;98845.72;5184269;28;20048;-82
2021/03/14 02:21:57;;;;;;;6.15;2.10;;;;;;;4.57;100.00;98839.09;5183763;28;20526;-82
2021/03/14 02:24:42;;;;;;;6.90;3.42;;;;;;;4.45;100.00;98849.09;5177640;28;20026;-79
2021/03/14 02:27:13;;;;;;;7.30;3.40;;;;;;;4.41;100.00;98856.13;5162052;28;20015;-79
2021/03/14 02:29:44;;;;;;;8.82;4.10;;;;;;;4.46;100.00;98861.13;5161009;28;20065;-79
2021/03/14 02:32:18;;;;;;;5.90;4.25;;;;;;;4.40;100.00;98866.50;5166323;28;20038;-81
2021/03/14 02:34:58;;;;;;;8.98;4.20;;;;;;;4.40;100.00;98876.84;5178564;28;20113;-79
2021/03/14 02:37:30;;;;;;;10.55;4.30;;;;;;;4.38;100.00;98889.84;5183909;28;20108;-80
2021/03/14 02:40:01;;;;;;;9.50;4.22;;;;;;;4.32;100.00;98894.41;5183844;28;20025;-81
2021/03/14 02:42:35;;;;;;;8.52;4.82;;;;;;;4.29;100.00;98885.00;5183534;28;20091;-79
2021/03/14 02:45:08;;;;;;;7.70;4.70;;;;;;;4.34;100.00;98893.47;5183590;28;20018;-80
2021/03/14 02:47:39;;;;;;;8.30;4.97;;;;;;;4.32;100.00;98879.72;5183768;28;20034;-81
2021/03/14 02:50:16;;;;;;;7.72;4.25;;;;;;;4.42;100.00;98885.38;5168482;28;20037;-79
2021/03/14 02:52:47;;;;;;;7.40;3.88;;;;;;;4.42;100.00;98894.00;5162655;28;20023;-79
2021/03/14 02:55:21;;;;;;;7.57;3.60;;;;;;;4.41;100.00;98897.50;5163322;28;20098;-80
2021/03/14 02:57:51;;;;;;;8.30;3.63;;;;;;;4.46;100.00;98898.16;5162724;28;20022;-80
2021/03/14 03:00:26;;;;;;;7.50;3.10;;;;;;;4.44;100.00;98910.28;5166541;28;20415;-79
2021/03/14 03:02:59;;;;;;;7.53;3.10;;;;;;;4.49;100.00;98929.06;5174065;28;20369;-79
2021/03/14 03:05:30;;;;;;;6.47;3.08;;;;;;;4.46;100.00;98936.13;5175383;28;20077;-81
2021/03/14 03:08:02;;;;;;;7.82;3.00;;;;;;;4.45;100.00;98932.66;5161981;28;20076;-78
2021/03/14 03:10:41;;;;;;;6.28;3.13;;;;;;;4.53;100.00;98938.41;5162457;28;20058;-80
2021/03/14 03:13:14;;;;;;;5.60;2.65;;;;;;;4.44;100.00;98930.16;5160381;28;20511;-81
2021/03/14 03:15:46;;;;;;;8.27;2.78;;;;;;;4.37;100.00;98949.38;5167332;28;20049;-79
2021/03/14 03:18:19;;;;;;;10.02;3.75;;;;;;;4.37;100.00;98950.22;5160785;28;20026;-79
2021/03/14 03:20:51;;;;;;;8.95;3.70;;;;;;;4.42;100.00;98952.63;5162181;28;20030;-79
2021/03/14 03:23:21;;;;;;;8.60;4.50;;;;;;;4.32;100.00;98946.13;5170033;28;20523;-79
2021/03/14 03:25:52;;;;;;;8.35;4.25;;;;;;;4.40;100.00;98965.63;5167475;28;20034;-78
2021/03/14 03:28:22;;;;;;;8.32;4.30;;;;;;;4.43;100.00;98955.16;5182948;28;20088;-82
2021/03/14 03:30:52;;;;;;;6.95;3.72;;;;;;;4.37;100.00;98955.41;5182366;28;20045;-79
2021/03/14 03:33:23;;;;;;;6.22;3.50;;;;;;;4.34;100.00;98960.69;5182618;28;20050;-80
2021/03/14 03:35:53;;;;;;;7.05;3.42;;;;;;;4.36;100.00;98958.88;5166808;28;20038;-78
2021/03/14 03:38:24;;;;;;;7.22;3.80;;;;;;;4.37;100.00;98970.06;5177782;28;20041;-78
2021/03/14 03:40:55;;;;;;;6.53;3.67;;;;;;;4.37;100.00;98976.09;5180879;28;20029;-80
2021/03/14 03:43:31;;;;;;;9.63;3.63;;;;;;;4.40;100.00;98969.94;5160227;28;20024;-79
2021/03/14 03:46:04;;;;;;;10.02;3.88;;;;;;;4.36;100.00;98970.94;5160863;28;20026;-79
2021/03/14 03:48:45;;;;;;;7.40;3.53;;;;;;;4.37;100.00;98964.88;5161780;28;20452;-82
2021/03/14 03:51:25;;;;;;;8.27;3.58;;;;;;;4.42;100.00;98961.22;5165119;28;20036;-79
2021/03/14 03:53:58;;;;;;;7.88;3.72;;;;;;;4.34;100.00;98968.44;5165025;28;20394;-78
2021/03/14 03:56:29;;;;;;;9.10;3.70;;;;;;;4.39;100.00;98970.84;5161677;28;20136;-78
2021/03/14 03:59:02;;;;;;;7.68;3.50;;;;;;;4.48;100.00;98979.09;5160173;28;20536;-82
2021/03/14 04:01:33;;;;;;;9.73;3.20;;;;;;;4.63;100.00;98998.41;5166756;28;20101;-79
2021/03/14 04:04:06;;;;;;;9.95;3.25;;;;;;;4.67;100.00;99020.66;5180178;28;20029;-80
2021/03/14 04:06:37;;;;;;;7.90;3.13;;;;;;;4.50;100.00;99039.38;5171766;28;20041;-79
2021/03/14 04:09:08;;;;;;;5.30;3.33;;;;;;;4.34;100.00;99038.25;5167945;28;20061;-80
2021/03/14 04:11:40;;;;;;;5.68;2.70;;;;;;;4.14;100.00;99051.00;5173946;28;20113;-79
2021/03/14 04:14:12;;;;;;;5.03;2.33;;;;;;;4.05;100.00;99041.00;5179520;28;20026;-79
2021/03/14 04:16:44;;;;;;;4.63;2.20;;;;;;;4.02;100.00;99054.03;5167292;28;20085;-79
2021/03/14 04:19:22;;;;;;;3.25;1.90;;;;;;;3.88;100.00;99045.88;5161316;28;20035;-80
2021/03/14 04:21:54;;;;;;;4.70;1.80;;;;;;;3.88;100.00;99063.97;5164086;28;20034;-80
2021/03/14 04:24:26;;;;;;;3.65;1.52;;;;;;;3.89;100.00;99062.22;5169668;28;20509;-80
2021/03/14 04:26:59;;;;;;;1.45;1.00;;;;;;;3.78;100.00;99061.75;5161270;28;20073;-80
2021/03/14 04:29:30;;;;;;;3.35;1.13;;;;;;;3.73;100.00;99079.09;5169372;28;20472;-78
2021/03/14 04:32:02;;;;;;;3.70;1.65;;;;;;;3.78;100.00;99072.91;5170444;28;20077;-78
2021/03/14 04:34:33;;;;;;;3.08;1.50;;;;;;;3.79;100.00;99087.50;5181530;28;20053;-80
2021/03/14 04:37:05;;;;;;;6.75;2.03;;;;;;;3.83;100.00;99083.94;5181897;28;20029;-79
2021/03/14 04:39:36;;;;;;;7.32;2.15;;;;;;;3.76;100.00;99081.63;5181389;28;20029;-79
2021/03/14 04:42:07;;;;;;;6.65;2.67;;;;;;;3.84;100.00;99090.81;5172112;28;20023;-78
2021/03/14 04:44:37;;;;;;;6.63;2.95;;;;;;;3.85;100.00;99097.66;5166883;28;20034;-80
2021/03/14 04:47:08;;;;;;;8.25;3.70;;;;;;;3.75;100.00;99101.41;5181190;28;20490;-79
2021/03/14 04:49:38;;;;;;;6.85;3.83;;;;;;;3.80;100.00;99109.84;5181446;28;20094;-79
2021/03/14 04:52:10;;;;;;;8.43;4.75;;;;;;;3.79;100.00;99110.75;5180430;28;20084;-78
2021/03/14 04:54:41;;;;;;;8.85;4.53;;;;;;;3.79;100.00;99117.69;5171564;28;20026;-79
2021/03/14 04:57:12;;;;;;;7.97;4.45;;;;;;;3.78;100.00;99124.56;5160772;28;20073;-80
2021/03/14 04:59:44;;;;;;;7.53;4.68;;;;;;;3.75;100.00;99127.25;5160808;28;20018;-79
2021/03/14 05:02:15;;;;;;;9.45;4.50;;;;;;;3.86;100.00;99129.50;5160875;28;20026;-79
2021/03/14 05:04:48;;;;;;;8.60;4.25;;;;;;;3.87;100.00;99134.63;5163435;28;20026;-78
2021/03/14 05:07:20;;;;;;;5.45;3.10;;;;;;;3.86;100.00;99148.44;5167824;28;20127;-81
2021/03/14 05:09:51;;;;;;;10.02;2.88;;;;;;;3.83;100.00;99138.19;5179477;28;20559;-80
2021/03/14 05:12:21;;;;;;;8.75;2.85;;;;;;;3.88;100.00;99141.47;5176297;28;20021;-78
2021/03/14 05:14:53;;;;;;;5.35;2.03;;;;;;;3.91;100.00;99150.84;5161377;28;20034;-80
2021/03/14 05:17:24;;;;;;;5.95;2.40;;;;;;;3.94;100.00;99151.59;5167872;28;20746;-81
2021/03/14 05:19:55;;;;;;;5.93;2.30;;;;;;;3.94;100.00;99146.44;5174296;28;20144;-79
2021/03/14 05:22:26;;;;;;;6.10;2.33;;;;;;;3.93;100.00;99154.25;5173315;28;20018;-79
2021/03/14 05:24:57;;;;;;;6.95;1.92;;;;;;;4.00;100.00;99142.81;5160814;28;20030;-79
2021/03/14 05:27:29;;;;;;;6.90;2.78;;;;;;;4.02;100.00;99152.22;5167705;28;20038;-80
2021/03/14 05:30:00;;;;;;;6.95;2.60;;;;;;;4.04;100.00;99152.16;5170789;28;20415;-78
2021/03/14 05:32:31;;;;;;;5.47;2.25;;;;;;;3.98;100.00;99173.88;5155549;28;20022;-80
2021/03/14 05:35:01;;;;;;;3.25;1.75;;;;;;;4.04;100.00;99178.84;5177089;28;20037;-78
2021/03/14 05:37:31;;;;;;;8.43;1.80;;;;;;;4.07;100.00;99188.22;5175579;28;20472;-79
2021/03/14 05:40:03;;;;;;;6.53;1.77;;;;;;;4.14;100.00;99184.56;5164502;28;20105;-78
2021/03/14 05:42:34;;;;;;;5.40;1.70;;;;;;;4.12;100.00;99182.03;5171018;28;20022;-83
2021/03/14 05:45:05;;;;;;;9.05;1.63;;;;;;;4.09;100.00;99182.13;5184725;28;20065;-78
2021/03/14 05:47:39;;;;;;;3.65;1.40;;;;;;;4.11;100.00;99184.69;5180718;28;20488;-80
2021/03/14 05:50:12;;;;;;;3.78;1.50;;;;;;;4.18;100.00;99188.75;5164590;28;20044;-81
2021/03/14 05:52:43;;;;;;;4.50;1.55;;;;;;;4.21;100.00;99202.44;5164321;28;20551;-78
2021/03/14 05:55:16;;;;;;;7.18;1.60;;;;;;;4.20;100.00;99205.91;5161961;28;20496;-81
2021/03/14 05:57:52;;;;;;;6.43;1.70;;;;;;;4.25;100.00;99209.19;5179130;28;20028;-79
2021/03/14 06:00:28;;;;;;;4.82;1.60;;;;;;;4.29;100.00;99221.09;5172735;28;20038;-79
2021/03/14 06:03:00;;;;;;;5.22;1.77;;;;;;;4.38;100.00;99223.41;5164063;28;20026;-79
2021/03/14 06:05:31;;;;;;;5.85;1.70;;;;;;;4.40;100.00;99223.34;5169407;28;20025;-79
2021/03/14 06:08:03;;;;;;;4.40;1.60;;;;;;;4.40;100.00;99231.97;5166120;28;20042;-80
2021/03/14 06:10:33;;;;;;;5.15;1.73;;;;;;;4.48;100.00;99239.47;5171432;28;20642;-80
2021/03/14 06:13:06;;;;;;;8.38;1.83;;;;;;;4.50;100.00;99248.84;5163393;28;20034;-81
2021/03/14 06:15:36;;;;;;;8.40;2.13;;;;;;;4.58;100.00;99254.63;5179061;28;20030;-79
2021/03/14 06:18:08;;;;;;;8.18;2.30;;;;;;;4.64;100.00;99251.00;5173114;28;20032;-78
2021/03/14 06:20:42;;;;;;;6.82;2.00;;;;;;;4.58;100.00;99270.16;5175882;28;20206;-81
2021/03/14 06:23:15;;;;;;;6.10;2.20;;;;;;;4.54;100.00;99272.88;5171282;28;20022;-78
2021/03/14 06:25:48;;;;;;;7.05;1.85;;;;;;;4.63;100.00;99275.19;5161519;28;20500;-78
2021/03/14 06:28:31;;;;;;;7.97;2.03;;;;;;;4.60;100.00;99289.06;5168478;28;20026;-82
2021/03/14 06:31:18;;;;;;;10.13;2.35;;;;;;;4.66;100.00;99298.38;5164002;28;20431;-79
2021/03/14 06:33:49;;;;;;;7.22;2.22;;;;;;;4.69;100.00;99298.25;5163701;28;20026;-81
2021/03/14 06:36:21;;;;;;;8.25;2.42;;;;;;;4.64;100.00;99316.50;5174901;28;20026;-80
2021/03/14 06:38:51;;;;;;;6.70;2.15;;;;;;;4.62;100.00;99323.47;5154266;28;20685;-81
2021/03/14 06:41:21;;;;;;;7.85;2.30;;;;;;;4.72;100.00;99348.19;5160048;28;20039;-79
2021/03/14 06:43:56;;;;;;;8.65;2.53;;;;;;;4.67;100.00;99344.88;5170191;28;20030;-79
2021/03/14 06:46:29;;;;;;;8.77;2.00;;;;;;;4.60;100.00;99347.72;5147546;28;20547;-80
2021/03/14 06:49:12;;;;;;;7.65;2.40;;;;;;;4.61;100.00;99358.00;5159950;28;20550;-79
2021/03/14 06:51:49;;;;;;;8.35;2.30;;;;;;;4.65;100.00;99380.28;5165344;28;20443;-81
2021/03/14 06:54:22;;;;;;;9.90;2.65;;;;;;;4.64;100.00;99373.44;5164183;28;20037;-81
2021/03/14 06:57:09;;;;;;;5.82;2.28;;;;;;;4.58;100.00;99371.03;5163749;28;20028;-80
2021/03/14 06:59:54;;;;;;;11.55;2.38;;;;;;;4.52;100.00;99378.13;5166851;28;20500;-81
2021/03/14 07:02:26;;;;;;;9.30;2.33;;;;;;;4.47;100.00;99380.84;5165412;28;20484;-79
2021/03/14 07:05:01;;;;;;;7.40;2.33;;;;;;;4.50;100.00;99388.53;5165540;28;20018;-80
2021/03/14 07:07:41;;;;;;;6.55;2.10;;;;;;;4.58;100.00;99398.63;5175813;28;20038;-79
2021/03/14 07:10:15;;;;;;;7.30;1.80;;;;;;;4.50;100.00;99390.28;5158741;28;20365;-80
2021/03/14 07:12:47;;;;;;;6.85;1.80;;;;;;;4.55;100.00;99399.59;5167447;28;20088;-81
2021/03/14 07:15:20;;;;;;;7.20;2.08;;;;;;;4.44;100.00;99406.00;5170840;28;20025;-81
2021/03/14 07:17:55;;;;;;;8.38;2.17;;;;;;;4.50;100.00;99419.56;5173426;28;20040;-80
2021/03/14 07:20:27;;;;;;;;;;;;;;;4.57;100.00;99428.84;5179423;28;20036;-78
2021/03/14 07:23:10;;;;;;;7.05;2.22;;;;;;;4.59;100.00;99432.22;5174146;28;19921;-79
2021/03/14 07:25:43;;;;;;;7.03;2.50;;;;;;;4.71;100.00;99439.63;5172961;28;20033;-81
2021/03/14 07:28:13;;;;;;;7.72;2.60;;;;;;;4.74;100.00;99443.84;5164474;28;20034;-79
2021/03/14 07:30:44;;;;;;;13.52;3.13;;;;;;;4.66;100.00;99453.59;5168650;28;20072;-79
2021/03/14 07:33:15;;;;;;;11.23;3.65;;;;;;;4.74;100.00;99447.31;5173741;28;20026;-80
2021/03/14 07:35:46;;;;;;;13.27;3.25;;;;;;;4.81;100.00;99451.38;5175704;28;20030;-80
2021/03/14 07:38:16;;;;;;;9.02;3.03;;;;;;;4.89;100.00;99451.16;5174819;28;20045;-81
2021/03/14 07:40:47;;;;;;;12.70;3.42;;;;;;;4.99;100.00;99463.75;5170085;28;20031;-81
2021/03/14 07:43:17;;;;;;;12.52;3.90;;;;;;;5.01;100.00;99469.72;5167181;28;20507;-80
2021/03/14 07:45:47;;;;;;;14.85;3.83;;;;;;;5.06;100.00;99470.47;5166806;28;20054;-79
2021/03/14 07:48:18;;;;;;;13.43;4.22;;;;;;;5.06;100.00;99473.03;5169543;28;20019;-79
2021/03/14 07:50:48;;;;;;;17.10;4.70;;;;;;;5.11;100.00;99478.09;5170260;28;20034;-81
2021/03/14 07:53:21;;;;;;;20.70;5.00;;;;;;;5.17;100.00;99478.72;5177947;28;20626;-79
2021/03/14 07:55:55;;;;;;;16.55;4.95;;;;;;;5.20;100.00;99488.13;5166716;28;20042;-79
2021/03/14 07:58:26;;;;;;;15.43;4.70;;;;;;;5.20;100.00;99494.19;5166830;28;20030;-81
2021/03/14 08:01:16;;;;;;;17.60;4.68;;;;;;;5.39;100.00;99490.94;5168532;28;20032;-79
2021/03/14 08:03:46;;;;;;;20.13;5.03;;;;;;;5.43;100.00;99508.06;5166304;28;20028;-80
2021/03/14 08:06:16;;;;;;;17.70;5.55;;;;;;;5.43;100.00;99513.25;5169079;28;20030;-78
2021/03/14 08:08:47;;;;;;;20.20;5.40;;;;;;;5.55;100.00;99527.59;5164915;28;20040;-79
2021/03/14 08:11:24;;;;;;;15.10;5.47;;;;;;;5.63;100.00;99530.75;5162765;28;20494;-80
2021/03/14 08:13:55;;;;;;;15.30;5.30;;;;;;;5.72;100.00;99531.31;5169660;28;20150;-80
2021/03/14 08:16:26;;;;;;;18.88;5.18;;;;;;;5.85;100.00;99539.53;5141408;28;20102;-80
2021/03/14 08:18:57;;;;;;;20.42;5.20;;;;;;;5.90;100.00;99540.25;5157886;28;20156;-82
2021/03/14 08:21:27;;;;;;;22.02;4.88;;;;;;;5.95;100.00;99540.94;5176808;28;20014;-79
2021/03/14 08:23:58;;;;;;;21.30;4.57;;;;;;;6.02;100.00;99555.38;5177680;28;20036;-79
2021/03/14 08:26:32;;;;;;;16.30;4.07;;;;;;;6.07;100.00;99559.53;5164749;28;20285;-81
2021/03/14 08:29:13;;;;;;;16.13;3.87;;;;;;;6.01;100.00;99556.28;5169710;28;20395;-80
2021/03/14 08:31:52;;;;;;;17.73;4.00;;;;;;;6.11;100.00;99565.47;5170482;28;20277;-79
2021/03/14 08:34:25;;;;;;;15.52;3.83;;;;;;;6.15;100.00;99567.06;5155216;28;20523;-79
2021/03/14 08:36:56;;;;;;;18.52;3.90;;;;;;;6.10;100.00;99568.97;5158305;28;20027;-80
2021/03/14 08:39:30;;;;;;;14.05;4.07;;;;;;;6.28;100.00;99574.34;5156424;28;20075;-81
2021/03/14 08:42:03;;;;;;;16.85;5.20;;;;;;;6.54;100.00;99576.03;5157610;28;20034;-81
2021/03/14 08:44:42;;;;;;;13.75;3.80;;;;;;;6.47;100.00;99574.56;5163935;28;20029;-79
2021/03/14 08:47:14;;;;;;;17.27;4.70;;;;;;;6.52;100.00;99577.84;5172657;28;20041;-80
2021/03/14 08:49:47;;;;;;;15.55;3.67;;;;;;;6.56;100.00;99576.88;5167193;28;20113;-79
2021/03/14 08:52:18;;;;;;;15.10;3.83;;;;;;;6.52;100.00;99588.22;5176500;28;20484;-80
2021/03/14 08:54:54;;;;;;;18.85;4.47;;;;;;;6.53;100.00;99587.31;5170279;28;20053;-82
2021/03/14 08:57:24;;;;;;;14.00;3.90;;;;;;;6.68;100.00;99590.25;5164780;28;20511;-81
2021/03/14 08:59:57;;;;;;;11.20;3.90;;;;;;;6.56;100.00;99592.44;5162116;28;20034;-84
2021/03/14 09:02:31;;;;;;;13.07;3.53;;;;;;;6.50;100.00;99600.41;5165969;28;20049;-81
2021/03/14 09:05:17;;;;;;;14.50;3.92;;;;;;;6.46;100.00;99601.44;5164817;28;20034;-81
2021/03/14 09:08:07;;;;;;;13.53;4.13;;;;;;;6.44;100.00;99608.41;5148274;28;20102;-79
2021/03/14 09:10:37;;;;;;;11.55;3.92;;;;;;;6.59;100.00;99613.09;5163006;28;20117;-79
2021/03/14 09:13:08;;;;;;;15.23;4.25;;;;;;;6.78;100.00;99616.72;5173538;28;20265;-82
2021/03/14 09:15:47;;;;;;;15.70;4.18;;;;;;;6.74;100.00;99617.75;5164812;28;20488;-82
2021/03/14 09:18:26;;;;;;;12.88;4.05;;;;;;;6.89;100.00;99618.03;5180446;28;20018;-78
2021/03/14 09:20:58;;;;;;;15.15;4.07;;;;;;;6.70;99.88;99621.31;5185894;28;20100;-82
2021/03/14 09:23:39;;;;;;;21.00;6.75;;;;;;;6.89;100.00;99624.94;5185924;28;20250;-78
2021/03/14 09:26:09;;;;;;;18.67;5.70;;;;;;;7.15;99.24;99622.28;5172303;28;20022;-79
2021/03/14 09:28:45;;;;;;;15.60;4.13;;;;;;;7.31;98.45;99638.09;5157670;28;20033;-80
2021/03/14 09:31:15;;;;;;;13.18;4.72;;;;;;;7.36;98.74;99633.56;5173148;28;20093;-79
2021/03/14 09:33:46;;;;;;;9.68;3.95;;;;;;;7.38;97.72;99636.09;5172080;28;20024;-79
2021/03/14 09:36:16;;;;;;;12.07;3.80;;;;;;;7.28;97.86;99646.00;5166812;28;20652;-79
2021/03/14 09:38:57;;;;;;;13.98;3.97;;;;;;;7.28;96.97;99645.13;5169175;28;20026;-79
2021/03/14 09:41:42;;;;;;;10.70;3.30;;;;;;;7.00;96.88;99648.81;5169205;28;20483;-82
2021/03/14 09:44:14;;;;;;;9.35;3.20;;;;;;;7.01;96.81;99656.56;5164829;28;20350;-83
2021/03/14 09:46:52;;;;;;;10.77;3.25;;;;;;;7.22;97.24;99655.75;5156613;28;20034;-81
2021/03/14 09:49:23;;;;;;;11.45;3.20;;;;;;;7.07;96.07;99658.91;5162654;28;20034;-78
2021/03/14 09:51:55;;;;;;;18.48;5.35;;;;;;;7.21;95.97;99661.88;5164003;28;20112;-81
2021/03/14 09:54:25;;;;;;;13.20;3.58;;;;;;;7.22;94.97;99672.19;5168111;28;20465;-83
2021/03/14 09:56:56;;;;;;;16.02;4.40;;;;;;;7.28;95.90;99671.13;5169159;28;20034;-81
2021/03/14 09:59:27;;;;;;;11.73;3.55;;;;;;;7.37;94.76;99671.63;5166965;28;20439;-80
2021/03/14 10:01:58;;;;;;;11.85;3.17;;;;;;;7.55;94.11;99665.72;5163164;28;20026;-85
2021/03/14 10:04:28;;;;;;;11.63;3.22;;;;;;;7.72;93.24;99665.94;5172054;28;20026;-84
2021/03/14 10:06:58;;;;;;;16.73;4.93;;;;;;;7.71;92.30;99673.81;5173141;28;20424;-81
2021/03/14 10:09:31;;;;;;;10.63;4.57;;;;;;;7.67;92.31;99682.66;5166216;28;20022;-80
2021/03/14 10:12:01;;;;;;;9.15;2.75;;;;;;;7.89;91.22;99686.94;5169189;28;20085;-82
2021/03/14 10:14:32;;;;;;;11.77;2.28;;;;;;;7.90;91.35;99680.81;5159634;28;20480;-88
2021/03/14 10:17:02;;;;;;;13.82;3.55;;;;;;;7.93;91.70;99683.34;5163735;28;20060;-83
2021/03/14 10:19:33;;;;;;;8.00;3.10;;;;;;;7.95;91.64;99685.84;5179102;28;20511;-88
2021/03/14 10:22:03;;;;;;;9.48;2.55;;;;;;;7.81;90.93;99694.22;5177640;28;20432;-81
2021/03/14 10:24:44;;;;;;;10.82;2.33;;;;;;;7.53;89.79;99703.94;5165341;28;20037;-80
2021/03/14 10:27:21;;;;;;;8.30;2.38;;;;;;;7.53;91.59;99709.16;5162961;28;20046;-84
2021/03/14 10:29:57;;;;;;;7.25;1.90;;;;;;;7.33;89.71;99718.59;5155121;28;20558;-79
2021/03/14 10:32:29;;;;;;;13.10;3.15;;;;;;;7.56;89.44;99714.22;5157371;28;20074;-80
2021/03/14 10:35:03;;;;;;;8.75;2.30;;;;;;;7.60;89.76;99725.38;5160877;28;20036;-80
2021/03/14 10:37:36;;;;;;;14.40;3.58;;;;;;;7.68;91.27;99724.16;5161080;28;20084;-80
2021/03/14 10:40:14;;;;;;;10.60;3.30;;;;;;;7.45;90.95;99715.53;5166835;28;20026;-80
2021/03/14 10:42:49;;;;;;;8.75;2.60;;;;;;;7.27;91.04;99739.59;5162949;28;20065;-80
2021/03/14 10:45:22;;;;;;;20.52;6.10;;;;;;;7.33;91.89;99741.97;5177055;28;20033;-81
2021/03/14 10:48:05;;;;;;;14.70;4.88;;;;;;;7.39;91.49;99768.56;5177581;28;20088;-81
2021/03/14 10:50:36;;;;;;;9.57;2.90;;;;;;;7.18;89.51;99767.66;5165265;28;20038;-80
2021/03/14 10:53:12;;;;;;;5.80;1.70;;;;;;;6.66;92.08;99778.09;5159123;28;20072;-82
2021/03/14 10:55:44;;;;;;;5.63;1.30;;;;;;;6.59;93.13;99774.84;5161845;28;20038;-80
2021/03/14 10:58:17;;;;;;;7.00;1.50;;;;;;;6.54;94.91;99787.13;5162098;28;20116;-82
2021/03/14 11:00:50;;;;;;;3.03;1.10;;;;;;;6.40;95.12;99785.88;5164704;28;20491;-81
2021/03/14 11:03:25;;;;;;;7.10;2.17;;;;;;;6.37;95.64;99783.34;5161193;28;20040;-80
2021/03/14 11:06:12;;;;;;;10.02;2.78;;;;;;;6.54;94.92;99773.28;5151185;28;20034;-80
2021/03/14 11:08:51;;;;;;;5.57;2.05;;;;;;;6.59;96.05;99777.44;5161009;28;20113;-80
2021/03/14 11:11:26;;;;;;;8.35;2.30;;;;;;;6.69;94.66;99781.44;5167928;28;20033;-81
2021/03/14 11:13:57;;;;;;;12.75;4.20;;;;;;;6.96;94.18;99780.50;5163048;28;20157;-80
2021/03/14 11:16:27;;;;;;;8.63;2.92;;;;;;;7.16;93.97;99780.72;5165579;28;20145;-82
2021/03/14 11:19:03;;;;;;;18.83;3.17;;;;;;;7.48;90.23;99772.59;5177595;28;20588;-80
2021/03/14 11:21:36;;;;;;;8.50;2.30;;;;;;;7.69;89.17;99772.66;5161790;28;20085;-81
2021/03/14 11:24:06;;;;;;;7.72;2.03;;;;;;;7.98;86.78;99775.03;5160711;28;20057;-82
2021/03/14 11:26:37;;;;;;;5.57;1.48;;;;;;;8.18;83.79;99780.38;5154143;28;20030;-81
2021/03/14 11:29:08;;;;;;;10.07;1.92;;;;;;;8.63;84.52;99785.50;5159904;28;20125;-82
2021/03/14 11:31:39;;;;;;;5.68;1.50;;;;;;;8.87;82.23;99785.34;5169836;28;20095;-85
2021/03/14 11:34:09;;;;;;;9.68;1.80;;;;;;;8.77;82.96;99784.06;5159382;28;20046;-83
2021/03/14 11:36:39;;;;;;;6.97;1.80;;;;;;;8.76;82.64;99787.53;5164866;28;20042;-85
2021/03/14 11:39:09;;;;;;;6.38;1.60;;;;;;;8.87;81.57;99795.78;5141222;28;20045;-82
2021/03/14 11:41:40;;;;;;;5.68;1.73;;;;;;;8.83;81.24;99799.44;5173295;28;20036;-81
2021/03/14 11:44:10;;;;;;;7.57;1.80;;;;;;;8.96;81.43;99797.16;5178375;28;20092;-80
2021/03/14 11:46:41;;;;;;;7.65;1.90;;;;;;;8.98;80.81;99788.38;5175204;28;20523;-84
2021/03/14 11:49:12;;;;;;;6.65;1.80;;;;;;;8.91;80.95;99794.72;5163644;28;20125;-83
2021/03/14 11:51:42;;;;;;;4.75;1.48;;;;;;;9.11;80.55;99792.19;5158684;28;20112;-79
2021/03/14 11:54:16;;;;;;;12.23;2.30;;;;;;;8.99;80.77;99784.88;5177557;28;20036;-79
2021/03/14 11:56:48;;;;;;;6.85;1.70;;;;;;;8.68;80.81;99789.63;5158941;28;20665;-82
2021/03/14 11:59:18;;;;;;;7.57;1.60;;;;;;;8.57;81.16;99796.19;5157713;28;20085;-82